createdAt,value
2022-09-27T00:01:10.271Z,93927.63
2022-09-27T00:03:37.277Z,93939.28
2022-09-27T00:06:06.603Z,93943.19
2022-09-27T00:08:34.577Z,93938.50
2022-09-27T00:11:07.364Z,93932.22
2022-09-27T00:13:34.040Z,93922.50
2022-09-27T00:16:02.936Z,93926.78
2022-09-27T00:18:29.513Z,93928.34
2022-09-27T00:20:56.101Z,93917.81
2022-09-27T00:23:22.847Z,93910.44
2022-09-27T00:25:57.276Z,93907.69
2022-09-27T00:28:24.665Z,93906.97
2022-09-27T00:30:51.809Z,93903.84
2022-09-27T00:33:18.399Z,93901.88
2022-09-27T00:35:46.204Z,93892.97
2022-09-27T00:38:13.206Z,93891.44
2022-09-27T00:40:40.186Z,93884.03
2022-09-27T00:43:16.533Z,93881.31
2022-09-27T00:45:45.918Z,93891.06
2022-09-27T00:48:16.131Z,93892.22
2022-09-27T00:50:48.050Z,93889.47
2022-09-27T00:53:30.727Z,93889.84
2022-09-27T00:56:01.448Z,93891.44
2022-09-27T00:58:32.996Z,93894.53
2022-09-27T01:01:05.710Z,93891.81
2022-09-27T01:03:51.446Z,93887.50
2022-09-27T01:06:20.553Z,93884.78
2022-09-27T01:08:48.389Z,93882.81
2022-09-27T01:11:46.098Z,93882.06
2022-09-27T01:14:28.985Z,93882.41
2022-09-27T01:16:58.635Z,93883.19
2022-09-27T01:19:57.951Z,93882.78
2022-09-27T01:22:37.795Z,93880.06
2022-09-27T01:25:33.021Z,93883.16
2022-09-27T01:28:05.830Z,93881.59
2022-09-27T01:30:56.396Z,93883.53
2022-09-27T01:33:43.312Z,93883.13
2022-09-27T01:36:53.361Z,93869.88
2022-09-27T01:39:47.775Z,93862.47
2022-09-27T01:42:53.539Z,93871.38
2022-09-27T01:45:36.932Z,93864.00
2022-09-27T01:48:21.043Z,93855.84
2022-09-27T01:50:57.171Z,93855.03
2022-09-27T01:53:37.970Z,93848.03
2022-09-27T01:56:35.002Z,93851.13
2022-09-27T01:59:24.454Z,93849.91
2022-09-27T02:02:05.134Z,93848.34
2022-09-27T02:04:56.805Z,93840.94
2022-09-27T02:07:28.574Z,93839.34
2022-09-27T02:10:02.372Z,93846.75
2022-09-27T02:12:52.143Z,93858.00
2022-09-27T02:15:19.421Z,93857.19
2022-09-27T02:18:15.924Z,93850.22
2022-09-27T02:20:51.285Z,93843.97
2022-09-27T02:23:23.273Z,93844.75
2022-09-27T02:26:01.598Z,93849.78
2022-09-27T02:28:42.508Z,93844.28
2022-09-27T02:31:11.438Z,93843.06
2022-09-27T02:34:11.301Z,93839.50
2022-09-27T02:36:38.383Z,93839.84
2022-09-27T02:39:05.164Z,93838.19
2022-09-27T02:41:33.180Z,93833.44
2022-09-27T02:44:04.690Z,93837.28
2022-09-27T02:46:48.059Z,93836.41
2022-09-27T02:49:30.041Z,93843.38
2022-09-27T02:52:26.506Z,93843.28
2022-09-27T02:55:15.020Z,93837.41
2022-09-27T02:58:01.220Z,93824.19
2022-09-27T03:00:44.341Z,93833.50
2022-09-27T03:04:07.773Z,93835.44
2022-09-27T03:06:35.973Z,93836.22
2022-09-27T03:09:02.463Z,93840.38
2022-09-27T03:11:29.226Z,93832.75
2022-09-27T03:14:08.003Z,93821.91
2022-09-27T03:16:38.960Z,93820.78
2022-09-27T03:19:34.626Z,93814.16
2022-09-27T03:22:21.166Z,93809.94
2022-09-27T03:24:47.890Z,93795.97
2022-09-27T03:27:14.495Z,93796.75
2022-09-27T03:29:41.172Z,93792.47
2022-09-27T03:32:09.247Z,93784.31
2022-09-27T03:35:01.845Z,93781.59
2022-09-27T03:37:28.591Z,93787.81
2022-09-27T03:39:55.474Z,93778.88
2022-09-27T03:42:21.988Z,93766.41
2022-09-27T03:44:51.288Z,93775.72
2022-09-27T03:47:17.849Z,93780.38
2022-09-27T03:49:44.645Z,93769.88
2022-09-27T03:52:11.212Z,93772.59
2022-09-27T03:54:37.764Z,93778.03
2022-09-27T03:57:04.420Z,93769.47
2022-09-27T03:59:32.100Z,93760.53
2022-09-27T04:02:18.710Z,93761.31
2022-09-27T04:05:11.756Z,93750.41
2022-09-27T04:07:38.352Z,93742.25
2022-09-27T04:10:06.246Z,93746.91
2022-09-27T04:12:34.789Z,93744.56
2022-09-27T04:15:01.327Z,93748.44
2022-09-27T04:17:46.031Z,93752.28
2022-09-27T04:20:41.776Z,93749.56
2022-09-27T04:23:12.386Z,93758.53
2022-09-27T04:25:43.458Z,93749.19
2022-09-27T04:28:30.371Z,93762.03
2022-09-27T04:30:57.823Z,93764.38
2022-09-27T04:33:47.764Z,93774.13
2022-09-27T04:36:24.135Z,93770.22
2022-09-27T04:39:02.884Z,93767.16
2022-09-27T04:41:30.814Z,93772.22
2022-09-27T04:43:59.517Z,93771.09
2022-09-27T04:46:27.509Z,93771.50
2022-09-27T04:48:54.104Z,93776.56
2022-09-27T04:51:20.867Z,93778.16
2022-09-27T04:53:47.689Z,93782.41
2022-09-27T04:56:15.261Z,93786.72
2022-09-27T04:58:42.091Z,93789.84
2022-09-27T05:01:09.312Z,93782.84
2022-09-27T05:03:54.751Z,93777.41
2022-09-27T05:06:21.537Z,93775.47
2022-09-27T05:08:48.091Z,93772.75
2022-09-27T05:11:17.500Z,93779.75
2022-09-27T05:14:05.088Z,93771.59
2022-09-27T05:16:39.293Z,93780.13
2022-09-27T05:19:34.803Z,93783.63
2022-09-27T05:22:12.043Z,93790.56
2022-09-27T05:24:38.581Z,93787.09
2022-09-27T05:27:06.197Z,93791.31
2022-09-27T05:29:32.889Z,93801.41
2022-09-27T05:32:06.628Z,93799.06
2022-09-27T05:34:33.207Z,93800.63
2022-09-27T05:37:00.362Z,93811.53
2022-09-27T05:39:30.141Z,93804.47
2022-09-27T05:41:56.901Z,93809.53
2022-09-27T05:44:24.047Z,93812.97
2022-09-27T05:46:57.260Z,93811.41
2022-09-27T05:49:23.921Z,93824.59
2022-09-27T05:51:50.522Z,93829.19
2022-09-27T05:54:17.132Z,93829.19
2022-09-27T05:56:43.772Z,93826.06
2022-09-27T05:59:36.554Z,93836.53
2022-09-27T06:02:21.499Z,93840.75
2022-09-27T06:05:07.255Z,93833.72
2022-09-27T06:08:08.098Z,93840.69
2022-09-27T06:10:41.087Z,93842.81
2022-09-27T06:13:12.173Z,93844.16
2022-09-27T06:15:43.484Z,93850.00
2022-09-27T06:18:15.607Z,93852.31
2022-09-27T06:20:44.336Z,93859.72
2022-09-27T06:23:19.976Z,93863.19
2022-09-27T06:25:49.402Z,93857.38
2022-09-27T06:28:22.284Z,93860.47
2022-09-27T06:30:52.642Z,93856.97
2022-09-27T06:33:38.630Z,93862.41
2022-09-27T06:36:07.262Z,93867.03
2022-09-27T06:38:36.134Z,93866.25
2022-09-27T06:41:11.368Z,93865.03
2022-09-27T06:43:49.322Z,93880.22
2022-09-27T06:46:34.310Z,93889.16
2022-09-27T06:49:09.374Z,93892.69
2022-09-27T06:51:36.021Z,93894.22
2022-09-27T06:54:02.754Z,93891.50
2022-09-27T06:56:29.389Z,93904.34
2022-09-27T06:58:55.903Z,93909.00
2022-09-27T07:01:44.413Z,93905.47
2022-09-27T07:04:26.417Z,93896.19
2022-09-27T07:07:13.506Z,93896.59
2022-09-27T07:09:48.108Z,93907.91
2022-09-27T07:12:14.783Z,93908.75
2022-09-27T07:14:42.342Z,93917.03
2022-09-27T07:17:12.914Z,93924.09
2022-09-27T07:19:43.398Z,93914.81
2022-09-27T07:22:11.075Z,93917.19
2022-09-27T07:24:38.409Z,93914.97
2022-09-27T07:27:06.009Z,93915.81
2022-09-27T07:29:32.786Z,93915.53
2022-09-27T07:31:59.884Z,93910.97
2022-09-27T07:34:27.648Z,93906.81
2022-09-27T07:36:59.278Z,93915.84
2022-09-27T07:39:27.141Z,93910.16
2022-09-27T07:41:53.676Z,93917.63
2022-09-27T07:44:21.414Z,93914.16
2022-09-27T07:47:10.578Z,93915.06
2022-09-27T07:50:22.752Z,93916.31
2022-09-27T07:53:13.206Z,93919.81
2022-09-27T07:56:10.729Z,93919.03
2022-09-27T07:58:57.578Z,93920.59
2022-09-27T08:01:44.185Z,93934.28
2022-09-27T08:04:30.858Z,93916.84
2022-09-27T08:07:17.527Z,93912.19
2022-09-27T08:10:08.831Z,93918.16
2022-09-27T08:12:57.519Z,93926.09
2022-09-27T08:15:44.130Z,93929.63
2022-09-27T08:18:30.744Z,93920.72
2022-09-27T08:21:32.678Z,93934.03
2022-09-27T08:24:31.768Z,93929.00
2022-09-27T08:27:25.344Z,93933.72
2022-09-27T08:30:13.883Z,93931.00
2022-09-27T08:33:02.171Z,93934.09
2022-09-27T08:35:50.611Z,93971.06
2022-09-27T08:38:37.258Z,93965.91
2022-09-27T08:41:38.512Z,93993.22
2022-09-27T08:44:59.732Z,93996.34
2022-09-27T08:48:00.432Z,94012.97
2022-09-27T08:50:48.608Z,94005.09
2022-09-27T08:53:49.755Z,94003.88
2022-09-27T08:56:37.588Z,94013.63
2022-09-27T08:59:30.033Z,94008.19
2022-09-27T09:02:22.816Z,94013.13
2022-09-27T09:05:19.175Z,94014.06
2022-09-27T09:08:18.435Z,93998.31
2022-09-27T09:11:21.994Z,94001.25
2022-09-27T09:14:54.476Z,94004.59
2022-09-27T09:18:24.009Z,94011.59
2022-09-27T09:21:49.222Z,94006.75
2022-09-27T09:24:35.815Z,94002.25
2022-09-27T09:27:31.194Z,93999.34
2022-09-27T09:30:23.263Z,93988.19
2022-09-27T09:33:25.600Z,93999.13
2022-09-27T09:36:37.992Z,94003.78
2022-09-27T09:39:33.083Z,93999.88
2022-09-27T09:42:29.033Z,93998.34
2022-09-27T09:45:21.104Z,93994.53
2022-09-27T09:48:18.411Z,94004.78
2022-09-27T09:51:11.009Z,93999.03
2022-09-27T09:54:04.322Z,94003.19
2022-09-27T09:57:15.361Z,94006.19
2022-09-27T10:00:12.795Z,94007.94
2022-09-27T10:03:03.675Z,94017.50
2022-09-27T10:06:06.724Z,94004.44
2022-09-27T10:09:05.718Z,94008.38
2022-09-27T10:12:00.211Z,94017.38
2022-09-27T10:14:52.410Z,94020.53
2022-09-27T10:17:49.749Z,94040.38
2022-09-27T10:20:44.331Z,94032.56
2022-09-27T10:23:32.130Z,94047.31
2022-09-27T10:26:38.453Z,94039.44
2022-09-27T10:29:37.644Z,94041.75
2022-09-27T10:32:33.341Z,94052.22
2022-09-27T10:35:47.948Z,94054.09
2022-09-27T10:38:52.578Z,94063.25
2022-09-27T10:41:46.479Z,94063.25
2022-09-27T10:44:39.897Z,94074.88
2022-09-27T10:47:39.455Z,94068.28
2022-09-27T10:50:59.243Z,94072.56
2022-09-27T10:53:57.935Z,94065.63
2022-09-27T10:57:05.606Z,94072.63
2022-09-27T10:59:56.789Z,94070.66
2022-09-27T11:02:43.610Z,94083.16
2022-09-27T11:05:38.700Z,94074.72
2022-09-27T11:08:31.389Z,94079.34
2022-09-27T11:11:27.276Z,94077.44
2022-09-27T11:14:23.136Z,94078.94
2022-09-27T11:17:15.592Z,94078.50
2022-09-27T11:20:19.159Z,94068.81
2022-09-27T11:23:19.846Z,94067.38
2022-09-27T11:26:36.667Z,94069.94
2022-09-27T11:29:36.277Z,94067.81
2022-09-27T11:33:07.298Z,94065.75
2022-09-27T11:36:28.639Z,94055.09
2022-09-27T11:39:23.380Z,94043.69
2022-09-27T11:42:39.140Z,94046.25
2022-09-27T11:49:19.739Z,94050.78
2022-09-27T11:52:20.858Z,94049.66
2022-09-27T11:55:14.364Z,94060.19
2022-09-27T11:58:28.947Z,94051.28
2022-09-27T12:01:39.628Z,94043.56
2022-09-27T12:04:50.667Z,94042.06
2022-09-27T12:07:49.412Z,94024.84
2022-09-27T12:10:41.904Z,94030.25
2022-09-27T12:13:40.396Z,94029.84
2022-09-27T12:16:30.468Z,94027.13
2022-09-27T12:19:26.904Z,94020.84
2022-09-27T12:22:57.532Z,94020.78
2022-09-27T12:25:56.273Z,94021.53
2022-09-27T12:29:23.328Z,94020.75
2022-09-27T12:32:42.783Z,94003.34
2022-09-27T12:35:32.652Z,94002.69
2022-09-27T12:38:47.170Z,93998.50
2022-09-27T12:41:38.726Z,93998.28
2022-09-27T12:45:01.727Z,93992.66
2022-09-27T12:48:07.013Z,94005.41
2022-09-27T12:51:01.969Z,94008.69
2022-09-27T12:54:00.763Z,94015.13
2022-09-27T12:57:32.821Z,94023.78
2022-09-27T13:00:23.740Z,94005.09
2022-09-27T13:03:43.377Z,94011.41
2022-09-27T13:07:07.245Z,94000.19
2022-09-27T13:10:29.594Z,94001.34
2022-09-27T13:13:22.787Z,94006.03
2022-09-27T13:16:10.375Z,94002.50
2022-09-27T13:19:01.720Z,93987.22
2022-09-27T13:21:51.262Z,93997.72
2022-09-27T13:24:58.036Z,93997.28
2022-09-27T13:28:49.371Z,94001.94
2022-09-27T13:31:55.085Z,94001.47
2022-09-27T13:35:22.559Z,93996.38
2022-09-27T13:38:24.436Z,94012.31
2022-09-27T13:41:21.268Z,94011.56
2022-09-27T13:44:41.567Z,94011.13
2022-09-27T13:47:30.154Z,94002.97
2022-09-27T13:50:48.536Z,94001.72
2022-09-27T13:53:40.171Z,94011.75
2022-09-27T13:56:36.319Z,94008.31
2022-09-27T13:59:30.610Z,94010.25
2022-09-27T14:02:49.735Z,94019.53
2022-09-27T14:05:51.504Z,94036.59
2022-09-27T14:09:04.313Z,94031.84
2022-09-27T14:11:56.792Z,94043.03
2022-09-27T14:14:43.946Z,94045.56
2022-09-27T14:17:31.840Z,94044.59
2022-09-27T14:20:37.135Z,94045.88
2022-09-27T14:23:26.259Z,94038.56
2022-09-27T14:26:23.405Z,94025.72
2022-09-27T14:29:21.038Z,94034.75
2022-09-27T14:32:13.547Z,94046.22
2022-09-27T14:35:15.210Z,94067.03
2022-09-27T14:38:26.374Z,94059.06
2022-09-27T14:41:13.803Z,94050.03
2022-09-27T14:44:01.133Z,94059.31
2022-09-27T14:46:48.075Z,94054.22
2022-09-27T14:49:34.616Z,94044.19
2022-09-27T14:52:40.683Z,94055.00
2022-09-27T14:55:29.995Z,94057.84
2022-09-27T14:58:35.986Z,94059.06
2022-09-27T15:01:23.116Z,94055.28
2022-09-27T15:04:15.166Z,94047.47
2022-09-27T15:07:03.057Z,94037.72
2022-09-27T15:09:49.898Z,94042.97
2022-09-27T15:12:36.734Z,94059.78
2022-09-27T15:15:27.091Z,94050.03
2022-09-27T15:18:28.498Z,94050.34
2022-09-27T15:21:28.648Z,94046.84
2022-09-27T15:24:38.205Z,94043.25
2022-09-27T15:27:26.155Z,94040.19
2022-09-27T15:30:18.154Z,94034.00
2022-09-27T15:33:06.532Z,94030.16
2022-09-27T15:35:57.588Z,94023.13
2022-09-27T15:38:45.188Z,94020.47
2022-09-27T15:42:02.514Z,94027.44
2022-09-27T15:44:53.926Z,94026.66
2022-09-27T15:47:42.555Z,94025.91
2022-09-27T15:50:29.054Z,94020.91
2022-09-27T15:53:33.930Z,94021.69
2022-09-27T15:56:20.456Z,94013.16
2022-09-27T15:59:17.156Z,94014.88
2022-09-27T16:02:12.809Z,94010.69
2022-09-27T16:04:59.430Z,94008.41
2022-09-27T16:07:45.981Z,94009.59
2022-09-27T16:10:41.827Z,94021.28
2022-09-27T16:13:32.702Z,94032.91
2022-09-27T16:16:21.016Z,94035.19
2022-09-27T16:19:07.608Z,94034.38
2022-09-27T16:21:54.047Z,94042.91
2022-09-27T16:24:43.140Z,94037.38
2022-09-27T16:27:29.665Z,94041.63
2022-09-27T16:30:17.167Z,94048.19
2022-09-27T16:33:03.743Z,94041.94
2022-09-27T16:35:55.289Z,94038.00
2022-09-27T16:38:55.274Z,94040.31
2022-09-27T16:41:41.772Z,94046.53
2022-09-27T16:44:35.035Z,94041.75
2022-09-27T16:47:35.059Z,94045.56
2022-09-27T16:50:21.558Z,94051.72
2022-09-27T16:53:14.817Z,94041.56
2022-09-27T16:56:14.845Z,94039.91
2022-09-27T16:59:03.264Z,94049.59
2022-09-27T17:01:54.933Z,94047.50
2022-09-27T17:04:54.640Z,94046.31
2022-09-27T17:07:41.115Z,94047.81
2022-09-27T17:10:34.392Z,94056.28
2022-09-27T17:13:34.348Z,94051.97
2022-09-27T17:16:21.699Z,94051.97
2022-09-27T17:19:15.499Z,94067.88
2022-09-27T17:22:14.428Z,94059.69
2022-09-27T17:25:00.945Z,94075.16
2022-09-27T17:27:54.008Z,94066.88
2022-09-27T17:30:53.940Z,94074.97
2022-09-27T17:33:45.290Z,94074.44
2022-09-27T17:36:34.214Z,94075.88
2022-09-27T17:39:33.659Z,94078.88
2022-09-27T17:42:20.155Z,94070.19
2022-09-27T17:45:13.484Z,94079.00
2022-09-27T17:48:13.780Z,94081.28
2022-09-27T17:51:00.313Z,94081.13
2022-09-27T17:53:53.371Z,94080.28
2022-09-27T17:56:53.664Z,94078.63
2022-09-27T17:59:40.179Z,94074.59
2022-09-27T18:02:33.122Z,94079.50
2022-09-27T18:05:33.028Z,94092.56
2022-09-27T18:08:19.506Z,94092.84
2022-09-27T18:11:18.504Z,94106.78
2022-09-27T18:14:13.035Z,94103.97
2022-09-27T18:16:59.669Z,94096.50
2022-09-27T18:19:52.508Z,94102.72
2022-09-27T18:22:52.504Z,94099.59
2022-09-27T18:25:39.005Z,94105.72
2022-09-27T18:28:32.237Z,94115.78
2022-09-27T18:31:32.619Z,94118.06
2022-09-27T18:34:19.192Z,94103.69
2022-09-27T18:37:12.076Z,94116.81
2022-09-27T18:40:12.134Z,94109.38
2022-09-27T18:42:58.634Z,94113.94
2022-09-27T18:45:51.840Z,94117.00
2022-09-27T18:48:52.440Z,94129.69
2022-09-27T18:51:40.431Z,94131.53
2022-09-27T18:54:31.578Z,94150.09
2022-09-27T18:57:31.606Z,94145.00
2022-09-27T19:00:18.134Z,94146.16
2022-09-27T19:03:14.844Z,94147.97
2022-09-27T19:06:19.743Z,94140.28
2022-09-27T19:09:07.541Z,94148.41
2022-09-27T19:11:54.232Z,94142.28
2022-09-27T19:14:51.102Z,94153.97
2022-09-27T19:17:37.648Z,94151.31
2022-09-27T19:20:33.312Z,94152.09
2022-09-27T19:23:00.337Z,94145.97
2022-09-27T19:25:26.850Z,94152.56
2022-09-27T19:27:53.545Z,94147.13
2022-09-27T19:30:20.308Z,94137.50
2022-09-27T19:32:47.090Z,94133.66
2022-09-27T19:35:13.845Z,94137.94
2022-09-27T19:37:40.797Z,94146.09
2022-09-27T19:40:07.694Z,94149.59
2022-09-27T19:42:34.158Z,94155.78
2022-09-27T19:45:00.677Z,94145.28
2022-09-27T19:47:27.216Z,94150.38
2022-09-27T19:49:53.807Z,94146.44
2022-09-27T19:52:20.300Z,94148.69
2022-09-27T19:54:46.852Z,94150.97
2022-09-27T19:57:13.444Z,94142.41
2022-09-27T19:59:39.912Z,94154.81
2022-09-27T20:02:06.828Z,94146.69
2022-09-27T20:04:33.409Z,94137.31
2022-09-27T20:06:59.859Z,94146.69
2022-09-27T20:09:26.371Z,94151.31
2022-09-27T20:11:52.949Z,94146.31
2022-09-27T20:14:19.485Z,94146.78
2022-09-27T20:16:46.055Z,94144.84
2022-09-27T20:19:12.658Z,94154.59
2022-09-27T20:21:39.343Z,94144.50
2022-09-27T20:24:06.031Z,94148.81
2022-09-27T20:26:33.815Z,94137.94
2022-09-27T20:29:01.893Z,94141.00
2022-09-27T20:31:31.094Z,94141.78
2022-09-27T20:33:57.640Z,94145.63
2022-09-27T20:36:29.577Z,94129.69
2022-09-27T20:39:02.476Z,94127.31
2022-09-27T20:41:32.013Z,94132.75
2022-09-27T20:44:00.871Z,94123.84
2022-09-27T20:46:27.576Z,94131.19
2022-09-27T20:48:57.066Z,94137.75
2022-09-27T20:51:24.468Z,94138.19
2022-09-27T20:53:51.676Z,94123.06
2022-09-27T20:56:30.569Z,94123.84
2022-09-27T20:58:59.016Z,94127.31
2022-09-27T21:01:27.272Z,94118.06
2022-09-27T21:03:55.742Z,94123.47
2022-09-27T21:06:22.725Z,94118.84
2022-09-27T21:08:50.863Z,94111.16
2022-09-27T21:11:18.110Z,94107.69
2022-09-27T21:13:46.001Z,94109.84
2022-09-27T21:16:23.717Z,94110.19
2022-09-27T21:18:52.224Z,94118.31
2022-09-27T21:21:19.824Z,94116.72
2022-09-27T21:23:47.544Z,94107.69
2022-09-27T21:26:16.682Z,94110.34
2022-09-27T21:28:45.023Z,94120.31
2022-09-27T21:31:22.294Z,94115.13
2022-09-27T21:33:52.078Z,94118.13
2022-09-27T21:36:19.008Z,94119.97
2022-09-27T21:38:45.524Z,94118.72
2022-09-27T21:41:15.723Z,94120.72
2022-09-27T21:43:43.937Z,94127.34
2022-09-27T21:46:20.278Z,94116.75
2022-09-27T21:48:48.828Z,94111.69
2022-09-27T21:51:19.203Z,94114.72
2022-09-27T21:53:53.834Z,94115.41
2022-09-27T21:56:21.595Z,94113.06
2022-09-27T21:58:48.942Z,94112.28
2022-09-27T22:01:17.205Z,94110.94
2022-09-27T22:03:44.583Z,94111.75
2022-09-27T22:06:17.851Z,94111.63
2022-09-27T22:08:45.441Z,94109.72
2022-09-27T22:11:21.018Z,94107.38
2022-09-27T22:13:47.552Z,94108.16
2022-09-27T22:16:16.512Z,94102.72
2022-09-27T22:18:44.850Z,94098.06
2022-09-27T22:21:14.232Z,94104.31
2022-09-27T22:23:40.792Z,94114.34
2022-09-27T22:26:16.250Z,94106.22
2022-09-27T22:28:44.155Z,94098.53
2022-09-27T22:31:12.149Z,94104.31
2022-09-27T22:33:38.667Z,94106.69
2022-09-27T22:36:05.680Z,94108.31
2022-09-27T22:38:32.876Z,94112.28
2022-09-27T22:41:01.799Z,94111.16
2022-09-27T22:43:28.681Z,94110.00
2022-09-27T22:45:56.290Z,94106.50
2022-09-27T22:48:23.282Z,94107.28
2022-09-27T22:50:49.810Z,94096.44
2022-09-27T22:53:16.341Z,94092.59
2022-09-27T22:55:42.810Z,94098.47
2022-09-27T22:58:09.369Z,94092.34
2022-09-27T23:00:37.988Z,94094.72
2022-09-27T23:03:04.504Z,94099.78
2022-09-27T23:05:31.063Z,94094.00
2022-09-27T23:07:57.600Z,94089.84
2022-09-27T23:10:24.060Z,94094.09
2022-09-27T23:12:54.029Z,94097.28
2022-09-27T23:15:20.612Z,94095.00
2022-09-27T23:17:50.926Z,94084.56
2022-09-27T23:20:17.799Z,94088.53
2022-09-27T23:22:45.185Z,94092.13
2022-09-27T23:25:11.658Z,94096.75
2022-09-27T23:27:38.162Z,94082.06
2022-09-27T23:30:05.117Z,94077.41
2022-09-27T23:32:31.999Z,94076.63
2022-09-27T23:34:58.634Z,94068.50
2022-09-27T23:37:25.157Z,94062.63
2022-09-27T23:39:51.662Z,94058.34
2022-09-27T23:42:18.231Z,94060.63
2022-09-27T23:44:44.847Z,94059.47
2022-09-27T23:47:11.541Z,94049.31
2022-09-27T23:49:38.000Z,94037.31
2022-09-27T23:52:05.332Z,94051.66
2022-09-27T23:54:32.573Z,94040.03
2022-09-27T23:56:59.258Z,94036.19
2022-09-27T23:59:25.741Z,94040.94
